Derby, Mississippi
Current Conditions -  °F | °C
As of 1:53 AM on Friday 19 Dec 2014 (Local Time) from KHBG Reporting Station
Overcast Overcast  
Wind Chill: 51°   Ceiling: 1900
Heat Index: 51°   Visibility: 8mi
Dew Point: 49°   Wind: 5mph
Humidity: 92%   Direction: 60°ENE
Pressure: 30.15"   Gusts: NA
Location:  30.8781°N, 89.5858°W
Report Text: KHBG 190753Z AUTO 06004KT 8SM SCT005 OVC019 11/09 A3015 RMK AO2 SLP210 T01060094
Loading
Personal Weather Stations






























Interactive Weather Map New forecast layout! Learn more

10-Day Weather Forecast

Advertisements
Track Severe Weather on mobile